createdAt,value
2024-02-18T00:01:01.787Z,10.74
2024-02-18T00:02:00.956Z,10.78
2024-02-18T00:03:00.921Z,10.73
2024-02-18T00:04:01.038Z,10.76
2024-02-18T00:08:48.348Z,10.74
2024-02-18T00:08:55.524Z,10.70
2024-02-18T00:09:53.770Z,10.73
2024-02-18T00:10:53.973Z,10.71
2024-02-18T00:11:53.723Z,10.71
2024-02-18T00:12:53.936Z,10.66
2024-02-18T00:13:54.311Z,10.71
2024-02-18T00:14:53.688Z,10.70
2024-02-18T00:15:53.662Z,10.68
2024-02-18T00:16:53.717Z,10.68
2024-02-18T00:17:53.682Z,10.67
2024-02-18T00:18:53.767Z,10.67
2024-02-18T00:19:53.884Z,10.68
2024-02-18T00:20:53.583Z,10.64
2024-02-18T00:21:53.654Z,10.66
2024-02-18T00:22:53.614Z,10.64
2024-02-18T00:23:56.875Z,10.64
2024-02-18T00:24:53.575Z,10.64
2024-02-18T00:26:05.886Z,10.63
2024-02-18T00:26:58.505Z,10.67
2024-02-18T00:27:53.539Z,10.66
2024-02-18T00:28:53.765Z,10.67
2024-02-18T00:29:53.509Z,10.67
2024-02-18T00:30:53.512Z,10.70
2024-02-18T00:31:53.491Z,10.70
2024-02-18T00:32:53.523Z,10.71
2024-02-18T00:33:53.574Z,10.73
2024-02-18T00:34:53.473Z,10.68
2024-02-18T00:35:53.387Z,10.70
2024-02-18T00:36:53.799Z,10.70
2024-02-18T00:37:55.861Z,10.70
2024-02-18T00:38:53.364Z,10.70
2024-02-18T00:39:53.400Z,10.71
2024-02-18T00:40:53.352Z,10.68
2024-02-18T00:41:53.331Z,10.71
2024-02-18T00:42:53.335Z,10.70
2024-02-18T00:43:53.283Z,10.71
2024-02-18T00:44:53.300Z,10.71
2024-02-18T00:45:53.296Z,10.70
2024-02-18T00:47:01.253Z,10.71
2024-02-18T00:47:53.969Z,10.68
2024-02-18T00:48:53.369Z,10.67
2024-02-18T00:49:53.410Z,10.70
2024-02-18T00:50:53.226Z,10.67
2024-02-18T00:51:53.303Z,10.66
2024-02-18T00:52:53.195Z,10.67
2024-02-18T00:53:53.170Z,10.61
2024-02-18T00:54:53.188Z,10.67
2024-02-18T00:55:53.136Z,10.64
2024-02-18T00:56:53.129Z,10.68
2024-02-18T00:57:53.132Z,10.64
2024-02-18T00:58:53.120Z,10.66
2024-02-18T00:59:53.080Z,10.63
2024-02-18T01:00:53.122Z,10.67
2024-02-18T01:01:53.113Z,10.64
2024-02-18T01:02:53.107Z,10.67
2024-02-18T01:03:53.051Z,10.64
2024-02-18T01:04:53.036Z,10.67
2024-02-18T01:05:53.039Z,10.63
2024-02-18T01:06:53.028Z,10.71
2024-02-18T01:07:52.987Z,10.68
2024-02-18T01:08:53.022Z,10.70
2024-02-18T01:09:53.254Z,10.68
2024-02-18T01:10:53.001Z,10.71
2024-02-18T01:11:52.946Z,10.68
2024-02-18T01:12:53.021Z,10.73
2024-02-18T01:13:52.905Z,10.68
2024-02-18T01:14:52.944Z,10.70
2024-02-18T01:15:52.923Z,10.70
2024-02-18T01:16:52.909Z,10.73
2024-02-18T01:17:52.979Z,10.71
2024-02-18T01:18:53.282Z,10.70
2024-02-18T01:19:52.871Z,10.70
2024-02-18T01:20:52.868Z,10.70
2024-02-18T01:21:52.890Z,10.68
2024-02-18T01:22:52.807Z,10.73
2024-02-18T01:23:52.841Z,10.70
2024-02-18T01:24:52.792Z,10.73
2024-02-18T01:25:52.752Z,10.73
2024-02-18T01:26:52.776Z,10.73
2024-02-18T01:27:52.772Z,10.74
2024-02-18T01:28:52.725Z,10.73
2024-02-18T01:29:52.700Z,10.71
2024-02-18T01:30:52.863Z,10.68
2024-02-18T01:31:52.666Z,10.68
2024-02-18T01:32:52.693Z,10.71
2024-02-18T01:33:52.840Z,10.67
2024-02-18T01:34:52.698Z,10.66
2024-02-18T01:35:52.618Z,10.71
2024-02-18T01:36:52.678Z,10.67
2024-02-18T01:37:52.634Z,10.67
2024-02-18T01:38:52.585Z,10.68
2024-02-18T01:39:52.595Z,10.70
2024-02-18T01:40:52.598Z,10.71
2024-02-18T01:41:52.536Z,10.67
2024-02-18T01:42:52.534Z,10.67
2024-02-18T01:43:52.528Z,10.68
2024-02-18T01:44:52.527Z,10.68
2024-02-18T01:45:52.530Z,10.71
2024-02-18T01:46:53.459Z,10.68
2024-02-18T01:47:52.500Z,10.67
2024-02-18T01:48:53.352Z,10.68
2024-02-18T01:49:52.924Z,10.68
2024-02-18T01:50:52.501Z,10.68
2024-02-18T01:51:52.480Z,10.68
2024-02-18T01:52:52.411Z,10.68
2024-02-18T01:53:52.381Z,10.67
2024-02-18T01:54:52.443Z,10.64
2024-02-18T01:55:52.393Z,10.67
2024-02-18T01:56:52.358Z,10.68
2024-02-18T01:57:52.397Z,10.66
2024-02-18T01:58:52.399Z,10.67
2024-02-18T01:59:52.526Z,10.68
2024-02-18T02:00:52.357Z,10.67
2024-02-18T02:01:52.397Z,10.68
2024-02-18T02:02:52.299Z,10.67
2024-02-18T02:03:52.404Z,10.67
2024-02-18T02:04:52.429Z,10.67
2024-02-18T02:05:52.270Z,10.68
2024-02-18T02:06:52.291Z,10.67
2024-02-18T02:07:52.434Z,10.70
2024-02-18T02:08:52.226Z,10.68
2024-02-18T02:09:52.274Z,10.70
2024-02-18T02:10:52.430Z,10.68
2024-02-18T02:11:52.182Z,10.73
2024-02-18T02:12:52.223Z,10.73
2024-02-18T02:13:52.217Z,10.74
2024-02-18T02:14:52.195Z,10.74
2024-02-18T02:15:52.167Z,10.73
2024-02-18T02:16:52.101Z,10.76
2024-02-18T02:17:52.792Z,10.73
2024-02-18T02:18:52.248Z,10.71
2024-02-18T02:19:52.301Z,10.74
2024-02-18T02:20:52.095Z,10.74
2024-02-18T02:21:52.161Z,10.71
2024-02-18T02:22:52.126Z,10.73
2024-02-18T02:23:52.044Z,10.68
2024-02-18T02:24:52.067Z,10.71
2024-02-18T02:25:52.072Z,10.70
2024-02-18T02:26:52.216Z,10.68
2024-02-18T02:27:51.972Z,10.70
2024-02-18T02:28:52.041Z,10.67
2024-02-18T02:29:51.931Z,10.70
2024-02-18T02:30:51.973Z,10.70
2024-02-18T02:32:51.970Z,10.67
2024-02-18T02:33:51.963Z,10.64
2024-02-18T02:34:51.922Z,10.60
2024-02-18T02:35:52.220Z,10.61
2024-02-18T02:36:51.994Z,10.61
2024-02-18T02:37:51.818Z,10.59
2024-02-18T02:38:54.016Z,10.60
2024-02-18T02:39:52.548Z,10.56
2024-02-18T02:40:51.808Z,10.59
2024-02-18T02:41:51.783Z,10.56
2024-02-18T02:42:51.820Z,10.48
2024-02-18T02:43:51.778Z,10.51
2024-02-18T02:44:51.796Z,10.51
2024-02-18T02:45:51.768Z,10.51
2024-02-18T02:46:51.744Z,10.48
2024-02-18T02:47:52.079Z,10.51
2024-02-18T02:48:51.797Z,10.48
2024-02-18T02:49:51.747Z,10.47
2024-02-18T02:50:51.681Z,10.47
2024-02-18T02:51:51.694Z,10.48
2024-02-18T02:52:51.699Z,10.47
2024-02-18T02:53:51.655Z,10.47
2024-02-18T02:54:51.674Z,10.47
2024-02-18T02:55:51.592Z,10.45
2024-02-18T02:56:52.097Z,10.45
2024-02-18T02:57:51.603Z,10.42
2024-02-18T02:58:51.630Z,10.44
2024-02-18T02:59:51.546Z,10.45
2024-02-18T03:00:51.602Z,10.41
2024-02-18T03:01:51.581Z,10.44
2024-02-18T03:02:51.759Z,10.42
2024-02-18T03:03:51.586Z,10.41
2024-02-18T03:04:51.516Z,10.42
2024-02-18T03:05:51.503Z,10.41
2024-02-18T03:06:51.529Z,10.41
2024-02-18T03:07:51.453Z,10.40
2024-02-18T03:08:51.582Z,10.38
2024-02-18T03:09:51.477Z,10.36
2024-02-18T03:10:51.418Z,10.38
2024-02-18T03:11:51.473Z,10.40
2024-02-18T03:12:51.562Z,10.38
2024-02-18T03:13:51.619Z,10.36
2024-02-18T03:14:51.369Z,10.34
2024-02-18T03:15:51.363Z,10.38
2024-02-18T03:16:51.365Z,10.34
2024-02-18T03:17:51.371Z,10.36
2024-02-18T03:18:51.725Z,10.34
2024-02-18T03:19:51.471Z,10.32
2024-02-18T03:20:51.280Z,10.32
2024-02-18T03:21:51.325Z,10.34
2024-02-18T03:22:51.286Z,10.33
2024-02-18T03:23:51.248Z,10.32
2024-02-18T03:24:51.344Z,10.30
2024-02-18T03:25:51.216Z,10.32
2024-02-18T03:26:51.205Z,10.29
2024-02-18T03:27:51.530Z,10.29
2024-02-18T03:28:51.509Z,10.29
2024-02-18T03:29:51.205Z,10.30
2024-02-18T03:30:51.469Z,10.27
2024-02-18T03:31:51.154Z,10.30
2024-02-18T03:32:51.221Z,10.26
2024-02-18T03:33:51.298Z,10.26
2024-02-18T03:34:51.548Z,10.27
2024-02-18T03:35:51.089Z,10.25
2024-02-18T03:36:51.158Z,10.25
2024-02-18T03:37:51.293Z,10.22
2024-02-18T03:38:51.129Z,10.22
2024-02-18T03:39:51.104Z,10.26
2024-02-18T03:40:51.051Z,10.22
2024-02-18T03:41:51.014Z,10.22
2024-02-18T03:42:51.033Z,10.23
2024-02-18T03:43:50.986Z,10.22
2024-02-18T03:44:51.004Z,10.22
2024-02-18T03:45:51.017Z,10.23
2024-02-18T03:46:51.352Z,10.22
2024-02-18T03:47:51.029Z,10.23
2024-02-18T03:48:50.963Z,10.22
2024-02-18T03:49:51.106Z,10.20
2024-02-18T03:50:50.902Z,10.20
2024-02-18T03:51:50.967Z,10.18
2024-02-18T03:52:50.876Z,10.17
2024-02-18T03:53:50.885Z,10.15
2024-02-18T03:54:50.866Z,10.17
2024-02-18T03:55:50.931Z,10.14
2024-02-18T03:56:50.824Z,10.15
2024-02-18T03:57:50.856Z,10.14
2024-02-18T03:58:50.882Z,10.12
2024-02-18T03:59:50.808Z,10.12
2024-02-18T04:00:50.933Z,10.12
2024-02-18T04:01:50.850Z,10.08
2024-02-18T04:02:50.762Z,10.08
2024-02-18T04:03:50.794Z,10.08
2024-02-18T04:04:50.784Z,10.05
2024-02-18T04:05:50.746Z,10.08
2024-02-18T04:06:51.602Z,10.05
2024-02-18T04:07:50.692Z,10.04
2024-02-18T04:08:50.712Z,10.07
2024-02-18T04:09:50.721Z,10.04
2024-02-18T04:10:50.652Z,10.04
2024-02-18T04:11:50.913Z,10.02
2024-02-18T04:12:56.467Z,10.01
2024-02-18T04:13:52.370Z,9.97
2024-02-18T04:14:55.564Z,10.01
2024-02-18T04:15:53.094Z,9.97
2024-02-18T04:16:50.572Z,10.01
2024-02-18T04:17:50.664Z,9.97
2024-02-18T04:18:50.657Z,9.96
2024-02-18T04:19:50.583Z,9.99
2024-02-18T04:20:50.517Z,9.94
2024-02-18T04:21:50.529Z,9.96
2024-02-18T04:22:50.534Z,9.96
2024-02-18T04:23:50.537Z,9.97
2024-02-18T04:24:50.727Z,9.94
2024-02-18T04:25:50.453Z,9.96
2024-02-18T04:26:50.439Z,10.01
2024-02-18T04:27:50.471Z,9.97
2024-02-18T04:28:50.448Z,9.96
2024-02-18T04:29:50.427Z,9.99
2024-02-18T04:30:50.426Z,9.99
2024-02-18T04:31:50.392Z,9.97
2024-02-18T04:32:50.387Z,9.96
2024-02-18T04:33:50.506Z,9.99
2024-02-18T04:34:50.427Z,9.97
2024-02-18T04:35:50.344Z,10.01
2024-02-18T04:36:50.412Z,10.01
2024-02-18T04:37:50.298Z,10.01
2024-02-18T04:38:50.289Z,10.05
2024-02-18T04:39:50.309Z,10.07
2024-02-18T04:40:50.288Z,10.05
2024-02-18T04:41:50.261Z,10.07
2024-02-18T04:42:50.274Z,10.04
2024-02-18T04:43:50.239Z,10.04
2024-02-18T04:44:50.437Z,10.05
2024-02-18T04:45:50.253Z,10.04
2024-02-18T04:46:50.258Z,10.08
2024-02-18T04:47:50.228Z,10.05
2024-02-18T04:48:50.482Z,10.04
2024-02-18T04:49:50.217Z,10.08
2024-02-18T04:50:50.142Z,10.05
2024-02-18T04:51:50.376Z,10.07
2024-02-18T04:52:50.133Z,10.07
2024-02-18T04:53:50.121Z,10.07
2024-02-18T04:54:50.177Z,10.05
2024-02-18T04:55:50.088Z,10.02
2024-02-18T04:56:50.058Z,10.05
2024-02-18T04:57:50.073Z,10.04
2024-02-18T04:58:50.052Z,9.99
2024-02-18T04:59:50.030Z,10.04
2024-02-18T05:00:50.123Z,10.02
2024-02-18T05:01:50.121Z,9.96
2024-02-18T05:02:50.017Z,9.96
2024-02-18T05:03:50.000Z,9.97
2024-02-18T05:04:50.009Z,9.96
2024-02-18T05:05:50.025Z,9.94
2024-02-18T05:06:50.119Z,9.94
2024-02-18T05:07:49.968Z,9.91
2024-02-18T05:08:49.953Z,9.91
2024-02-18T05:09:49.926Z,9.90
2024-02-18T05:10:49.905Z,9.91
2024-02-18T05:11:49.895Z,9.91
2024-02-18T05:12:49.933Z,9.90
2024-02-18T05:13:49.851Z,9.89
2024-02-18T05:14:49.873Z,9.87
2024-02-18T05:15:49.826Z,9.87
2024-02-18T05:16:50.042Z,9.87
2024-02-18T05:17:49.898Z,9.89
2024-02-18T05:18:50.785Z,9.89
2024-02-18T05:19:49.802Z,9.90
2024-02-18T05:20:49.772Z,9.87
2024-02-18T05:21:49.843Z,9.86
2024-02-18T05:22:49.738Z,9.83
2024-02-18T05:23:49.725Z,9.86
2024-02-18T05:24:49.751Z,9.81
2024-02-18T05:25:49.708Z,9.90
2024-02-18T05:26:50.356Z,9.86
2024-02-18T05:27:49.762Z,9.83
2024-02-18T05:28:49.672Z,9.84
2024-02-18T05:29:49.706Z,9.81
2024-02-18T05:30:50.431Z,9.86
2024-02-18T05:31:49.851Z,9.81
2024-02-18T05:32:49.714Z,9.83
2024-02-18T05:33:49.827Z,9.79
2024-02-18T05:34:49.744Z,9.78
2024-02-18T05:35:49.633Z,9.87
2024-02-18T05:36:49.658Z,9.86
2024-02-18T05:37:49.572Z,9.90
2024-02-18T05:38:49.557Z,9.86
2024-02-18T05:39:49.633Z,9.87
2024-02-18T05:40:49.522Z,9.89
2024-02-18T05:41:49.501Z,9.91
2024-02-18T05:42:49.523Z,9.89
2024-02-18T05:43:49.506Z,9.89
2024-02-18T05:44:49.483Z,9.86
2024-02-18T05:45:49.463Z,9.86
2024-02-18T05:46:49.476Z,9.90
2024-02-18T05:47:49.492Z,9.91
2024-02-18T05:48:49.491Z,9.89
2024-02-18T05:49:49.467Z,9.90
2024-02-18T05:50:49.398Z,9.91
2024-02-18T05:51:49.383Z,9.90
2024-02-18T05:52:49.363Z,9.87
2024-02-18T05:53:49.390Z,9.91
2024-02-18T05:54:49.335Z,9.90
2024-02-18T05:55:49.566Z,9.90
2024-02-18T05:56:49.326Z,9.89
2024-02-18T05:57:49.401Z,9.89
2024-02-18T05:58:49.289Z,9.91
2024-02-18T05:59:49.267Z,9.89
2024-02-18T06:00:49.307Z,9.89
2024-02-18T06:01:49.292Z,9.84
2024-02-18T06:02:49.188Z,9.84
2024-02-18T06:03:49.319Z,9.84
2024-02-18T06:04:49.266Z,9.86
2024-02-18T06:05:49.388Z,9.84
2024-02-18T06:06:49.336Z,9.83
2024-02-18T06:07:49.214Z,9.86
2024-02-18T06:08:49.132Z,9.84
2024-02-18T06:09:49.247Z,9.86
2024-02-18T06:10:49.305Z,9.84
2024-02-18T06:11:49.159Z,9.83
2024-02-18T06:12:49.145Z,9.78
2024-02-18T06:13:49.070Z,9.79
2024-02-18T06:14:49.040Z,9.79
2024-02-18T06:15:49.071Z,9.81
2024-02-18T06:16:49.092Z,9.83
2024-02-18T06:17:49.057Z,9.87
2024-02-18T06:18:49.112Z,9.86
2024-02-18T06:19:49.163Z,9.84
2024-02-18T06:20:49.178Z,9.84
2024-02-18T06:21:48.992Z,9.83
2024-02-18T06:22:48.955Z,9.86
2024-02-18T06:23:48.912Z,9.86
2024-02-18T06:24:48.969Z,9.89
2024-02-18T06:25:48.893Z,9.90
2024-02-18T06:26:48.886Z,9.89
2024-02-18T06:27:48.990Z,9.93
2024-02-18T06:28:48.933Z,9.93
2024-02-18T06:29:48.918Z,9.90
2024-02-18T06:30:48.975Z,9.93
2024-02-18T06:31:49.498Z,9.89
2024-02-18T06:32:48.795Z,9.90
2024-02-18T06:33:48.953Z,9.91
2024-02-18T06:34:48.964Z,9.90
2024-02-18T06:35:48.799Z,9.93
2024-02-18T06:36:48.822Z,9.91
2024-02-18T06:37:48.747Z,9.90
2024-02-18T06:38:48.729Z,9.89
2024-02-18T06:39:48.761Z,9.89
2024-02-18T06:40:48.769Z,9.86
2024-02-18T06:41:48.678Z,9.86
2024-02-18T06:42:48.709Z,9.86
2024-02-18T06:43:48.658Z,9.86
2024-02-18T06:44:48.721Z,9.89
2024-02-18T06:45:48.665Z,9.87
2024-02-18T06:46:48.644Z,9.84
2024-02-18T06:47:48.832Z,9.83
2024-02-18T06:48:48.670Z,9.87
2024-02-18T06:49:48.802Z,9.81
2024-02-18T06:50:48.574Z,9.84
2024-02-18T06:51:48.614Z,9.84
2024-02-18T06:52:48.840Z,9.83
2024-02-18T06:53:48.526Z,9.83
2024-02-18T06:54:48.588Z,9.86
2024-02-18T06:55:48.502Z,9.81
2024-02-18T06:56:48.521Z,9.87
2024-02-18T06:57:48.599Z,9.81
2024-02-18T06:58:48.489Z,9.87
2024-02-18T06:59:48.466Z,9.83
2024-02-18T07:00:48.709Z,9.83
2024-02-18T07:01:48.484Z,9.84
2024-02-18T07:02:48.471Z,9.84
2024-02-18T07:03:48.510Z,9.87
2024-02-18T07:04:48.478Z,9.81
2024-02-18T07:05:48.471Z,9.81
2024-02-18T07:06:48.505Z,9.81
2024-02-18T07:07:48.362Z,9.79
2024-02-18T07:08:48.572Z,9.76
2024-02-18T07:09:48.398Z,9.79
2024-02-18T07:10:48.390Z,9.74
2024-02-18T07:11:51.671Z,9.72
2024-02-18T07:12:49.021Z,9.68
2024-02-18T07:13:48.277Z,9.64
2024-02-18T07:14:48.283Z,9.64
2024-02-18T07:15:49.008Z,9.58
2024-02-18T07:16:48.254Z,9.57
2024-02-18T07:17:48.274Z,9.57
2024-02-18T07:18:48.344Z,9.57
2024-02-18T07:19:48.628Z,9.53
2024-02-18T07:20:48.188Z,9.53
2024-02-18T07:21:48.189Z,9.50
2024-02-18T07:22:48.412Z,9.48
2024-02-18T07:23:48.204Z,9.51
2024-02-18T07:24:48.924Z,9.50
2024-02-18T07:25:48.370Z,9.48
2024-02-18T07:27:44.296Z,9.43
2024-02-18T07:27:50.204Z,9.43
2024-02-18T07:28:51.201Z,9.42
2024-02-18T07:29:49.947Z,9.40
2024-02-18T07:30:49.648Z,9.42
2024-02-18T07:33:46.242Z,9.42
2024-02-18T07:33:53.756Z,9.39
2024-02-18T07:34:51.770Z,9.42
2024-02-18T07:35:51.670Z,9.40
2024-02-18T07:36:51.915Z,9.36
2024-02-18T07:37:51.673Z,9.35
2024-02-18T07:38:51.963Z,9.38
2024-02-18T07:39:53.201Z,9.35
2024-02-18T07:40:51.840Z,9.38
2024-02-18T07:41:51.614Z,9.35
2024-02-18T07:42:51.718Z,9.36
2024-02-18T07:43:51.571Z,9.36
2024-02-18T07:44:51.574Z,9.39
2024-02-18T07:45:54.465Z,9.36
2024-02-18T07:46:51.531Z,9.33
2024-02-18T07:47:51.558Z,9.36
2024-02-18T07:48:51.718Z,9.32
2024-02-18T07:49:51.637Z,9.31
2024-02-18T07:50:51.518Z,9.32
2024-02-18T07:51:51.549Z,9.32
2024-02-18T07:52:51.476Z,9.32
2024-02-18T07:53:51.450Z,9.32
2024-02-18T07:54:51.477Z,9.31
2024-02-18T07:55:51.437Z,9.35
2024-02-18T07:56:51.410Z,9.35
2024-02-18T07:57:51.411Z,9.35
2024-02-18T07:58:51.506Z,9.32
2024-02-18T07:59:51.404Z,9.36
2024-02-18T08:00:51.405Z,9.35
2024-02-18T08:01:51.444Z,9.36
2024-02-18T08:02:51.349Z,9.33
2024-02-18T08:03:51.369Z,9.38
2024-02-18T08:04:51.425Z,9.35
2024-02-18T08:05:51.296Z,9.36
2024-02-18T08:06:51.373Z,9.36
2024-02-18T08:07:51.285Z,9.35
2024-02-18T08:08:51.297Z,9.38
2024-02-18T08:09:51.278Z,9.38
2024-02-18T08:10:51.276Z,9.38
2024-02-18T08:11:51.230Z,9.43
2024-02-18T08:12:53.835Z,9.42
2024-02-18T08:13:51.186Z,9.40
2024-02-18T08:14:51.197Z,9.43
2024-02-18T08:15:51.263Z,9.42
2024-02-18T08:16:51.167Z,9.43
2024-02-18T08:17:51.231Z,9.46
2024-02-18T08:18:51.383Z,9.50
2024-02-18T08:19:51.184Z,9.53
2024-02-18T08:20:51.108Z,9.53
2024-02-18T08:21:51.156Z,9.51
2024-02-18T08:22:51.112Z,9.56
2024-02-18T08:23:51.055Z,9.51
2024-02-18T08:24:51.101Z,9.53
2024-02-18T08:25:51.055Z,9.53
2024-02-18T08:26:51.021Z,9.56
2024-02-18T08:27:51.041Z,9.54
2024-02-18T08:28:51.058Z,9.54
2024-02-18T08:29:50.986Z,9.56
2024-02-18T08:30:50.991Z,9.53
2024-02-18T08:31:50.966Z,9.57
2024-02-18T08:32:51.000Z,9.57
2024-02-18T08:33:51.112Z,9.58
2024-02-18T08:34:51.116Z,9.54
2024-02-18T08:35:50.998Z,9.56
2024-02-18T08:36:51.198Z,9.56
2024-02-18T08:37:50.893Z,9.58
2024-02-18T08:38:50.981Z,9.57
2024-02-18T08:39:50.879Z,9.53
2024-02-18T08:40:50.848Z,9.54
2024-02-18T08:41:51.448Z,9.56
2024-02-18T08:42:50.894Z,9.58
2024-02-18T08:43:50.828Z,9.57
2024-02-18T08:44:51.031Z,9.57
2024-02-18T08:46:02.944Z,9.57
2024-02-18T08:46:50.791Z,9.56
2024-02-18T08:47:50.822Z,9.54
2024-02-18T08:48:52.411Z,9.57
2024-02-18T08:49:58.769Z,9.57
2024-02-18T08:51:00.985Z,9.58
2024-02-18T08:51:50.779Z,9.58
2024-02-18T08:52:50.731Z,9.57
2024-02-18T08:53:50.932Z,9.60
2024-02-18T08:54:50.716Z,9.65
2024-02-18T08:55:50.672Z,9.61
2024-02-18T08:56:50.667Z,9.60
2024-02-18T08:57:50.742Z,9.61
2024-02-18T08:58:50.707Z,9.58
2024-02-18T08:59:51.311Z,9.61
2024-02-18T09:01:19.807Z,9.58
2024-02-18T09:01:50.624Z,9.61
2024-02-18T09:02:50.589Z,9.61
2024-02-18T09:03:51.304Z,9.61
2024-02-18T09:04:50.943Z,9.65
2024-02-18T09:05:50.588Z,9.68
2024-02-18T09:06:53.942Z,9.65
2024-02-18T09:07:50.526Z,9.64
2024-02-18T09:08:50.704Z,9.64
2024-02-18T09:09:50.509Z,9.66
2024-02-18T09:10:51.109Z,9.61
2024-02-18T09:19:45.148Z,9.66
2024-02-18T09:19:54.091Z,9.74
2024-02-18T09:20:50.586Z,9.74
2024-02-18T09:21:55.681Z,9.76
2024-02-18T09:22:52.122Z,9.78
2024-02-18T09:23:53.860Z,9.79
2024-02-18T09:24:51.251Z,9.81
2024-02-18T09:25:50.555Z,9.75
2024-02-18T09:26:50.533Z,9.76
2024-02-18T09:27:50.552Z,9.74
2024-02-18T09:28:50.807Z,9.83
2024-02-18T09:29:50.513Z,9.86
2024-02-18T09:30:50.543Z,9.76
2024-02-18T09:31:50.532Z,9.81
2024-02-18T09:32:50.471Z,9.84
2024-02-18T09:33:50.745Z,9.90
2024-02-18T09:34:50.576Z,9.89
2024-02-18T09:35:50.468Z,9.87
2024-02-18T09:36:50.416Z,9.78
2024-02-18T09:37:53.879Z,9.76
2024-02-18T09:38:50.393Z,9.83
2024-02-18T09:39:50.467Z,9.75
2024-02-18T09:40:50.351Z,9.79
2024-02-18T09:41:50.353Z,9.75
2024-02-18T09:42:50.389Z,9.79
2024-02-18T09:43:50.310Z,9.69
2024-02-18T09:44:50.499Z,9.66
2024-02-18T09:45:50.549Z,9.68
2024-02-18T09:46:50.289Z,9.69
2024-02-18T09:47:50.569Z,9.71
2024-02-18T09:48:50.431Z,9.72
2024-02-18T09:49:50.264Z,9.71
2024-02-18T09:50:50.368Z,9.71
2024-02-18T09:51:50.280Z,9.68
2024-02-18T09:52:51.074Z,9.60
2024-02-18T09:53:50.400Z,9.60
2024-02-18T09:54:50.194Z,9.61
2024-02-18T09:55:50.767Z,9.58
2024-02-18T09:56:50.372Z,9.68
2024-02-18T09:57:50.174Z,9.75
2024-02-18T09:58:50.157Z,9.76
2024-02-18T09:59:50.101Z,9.68
2024-02-18T10:00:50.137Z,9.66
2024-02-18T10:01:50.128Z,9.72
2024-02-18T10:02:50.040Z,9.65
2024-02-18T10:03:50.145Z,9.65
2024-02-18T10:04:50.307Z,9.61
2024-02-18T10:05:50.041Z,9.58
2024-02-18T10:06:50.102Z,9.60
2024-02-18T10:07:50.010Z,9.56
2024-02-18T10:08:49.966Z,9.56
2024-02-18T10:09:49.988Z,9.60
2024-02-18T10:10:50.232Z,9.65
2024-02-18T10:11:51.466Z,9.66
2024-02-18T10:12:49.944Z,9.68
2024-02-18T10:13:49.932Z,9.66
2024-02-18T10:14:49.905Z,9.66
2024-02-18T10:15:49.955Z,9.58
2024-02-18T10:16:50.568Z,9.61
2024-02-18T10:17:50.094Z,9.61
2024-02-18T10:18:49.928Z,9.58
2024-02-18T10:19:50.340Z,9.64
2024-02-18T10:20:49.817Z,9.58
2024-02-18T10:21:49.885Z,9.57
2024-02-18T10:22:49.795Z,9.61
2024-02-18T10:23:49.794Z,9.61
2024-02-18T10:24:49.831Z,9.56
2024-02-18T10:25:49.819Z,9.54
2024-02-18T10:26:49.789Z,9.51
2024-02-18T10:27:49.796Z,9.53
2024-02-18T10:28:49.725Z,9.54
2024-02-18T10:29:49.699Z,9.54
2024-02-18T10:30:49.738Z,9.54
2024-02-18T10:31:49.731Z,9.53
2024-02-18T10:32:50.377Z,9.50
2024-02-18T10:33:49.855Z,9.50
2024-02-18T10:34:50.399Z,9.48
2024-02-18T10:35:49.746Z,9.47
2024-02-18T10:36:49.661Z,9.42
2024-02-18T10:37:49.649Z,9.47
2024-02-18T10:38:49.584Z,9.50
2024-02-18T10:39:49.633Z,9.40
2024-02-18T10:40:49.565Z,9.40
2024-02-18T10:41:49.572Z,9.36
2024-02-18T10:42:49.615Z,9.38
2024-02-18T10:43:49.554Z,9.38
2024-02-18T10:44:49.524Z,9.36
2024-02-18T10:45:49.543Z,9.39
2024-02-18T10:46:56.069Z,9.40
2024-02-18T10:48:05.477Z,9.38
2024-02-18T10:48:49.506Z,9.42
2024-02-18T10:49:49.591Z,9.39
2024-02-18T10:50:49.459Z,9.38
2024-02-18T10:51:49.462Z,9.36
2024-02-18T10:52:49.834Z,9.40
2024-02-18T10:53:49.392Z,9.33
2024-02-18T10:54:49.469Z,9.33
2024-02-18T10:55:49.378Z,9.32
2024-02-18T10:56:49.361Z,9.32
2024-02-18T11:14:50.366Z,9.31
2024-02-18T11:14:55.736Z,9.29
2024-02-18T11:15:55.789Z,9.31
2024-02-18T11:16:55.697Z,9.29
2024-02-18T11:17:55.760Z,9.38
2024-02-18T11:18:55.726Z,9.31
2024-02-18T11:19:55.744Z,9.26
2024-02-18T11:20:55.637Z,9.24
2024-02-18T11:21:55.670Z,9.23
2024-02-18T11:22:55.616Z,9.24
2024-02-18T11:23:55.611Z,9.21
2024-02-18T11:57:27.510Z,9.18
2024-02-18T11:58:28.437Z,9.18
2024-02-18T11:59:28.434Z,9.23
2024-02-18T12:00:28.440Z,9.24
2024-02-18T12:01:28.774Z,9.15
2024-02-18T12:02:28.412Z,9.18
2024-02-18T12:03:28.364Z,9.15
2024-02-18T12:04:28.345Z,9.14
2024-02-18T12:05:28.386Z,9.10
2024-02-18T12:06:28.444Z,9.04
2024-02-18T12:07:28.441Z,9.05
2024-02-18T12:08:28.320Z,9.05
2024-02-18T12:09:28.303Z,9.01
2024-02-18T12:10:28.258Z,8.98
2024-02-18T12:11:28.593Z,8.95
2024-02-18T12:12:29.821Z,8.92
2024-02-18T12:13:28.286Z,8.96
2024-02-18T12:14:38.338Z,8.94
2024-02-18T12:15:28.516Z,8.96
2024-02-18T12:16:33.247Z,8.89
2024-02-18T12:17:28.558Z,8.92
2024-02-18T12:18:28.288Z,8.91
2024-02-18T12:19:29.740Z,9.01
2024-02-18T12:20:30.002Z,9.01
2024-02-18T12:25:16.086Z,9.01
2024-02-18T12:25:21.780Z,9.01
2024-02-18T12:26:21.553Z,9.10
2024-02-18T12:35:18.455Z,9.13
2024-02-18T12:35:24.169Z,8.99
2024-02-18T12:36:31.407Z,9.08
2024-02-18T12:37:31.456Z,9.04
2024-02-18T12:38:25.535Z,9.05
2024-02-18T12:39:27.359Z,9.08
2024-02-18T20:03:51.747Z,9.53
2024-02-18T20:04:50.200Z,9.53
2024-02-18T20:05:55.632Z,9.48
2024-02-18T20:06:48.813Z,9.48
2024-02-18T20:07:55.543Z,9.50
2024-02-18T20:08:48.503Z,9.46
2024-02-18T20:09:48.745Z,9.46
2024-02-18T20:12:43.565Z,9.42
2024-02-18T20:12:52.689Z,9.43
